sensor_id;sensor_type;location;lat;lon;timestamp;temperature;humidity
35445;DHT22;21562;49.476;6.086;2023-03-19T00:01:13;12.40;99.90
35445;DHT22;21562;49.476;6.086;2023-03-19T00:03:38;12.60;99.90
35445;DHT22;21562;49.476;6.086;2023-03-19T00:06:04;12.90;99.90
35445;DHT22;21562;49.476;6.086;2023-03-19T00:08:29;13.10;99.90
35445;DHT22;21562;49.476;6.086;2023-03-19T00:10:55;13.20;99.90
35445;DHT22;21562;49.476;6.086;2023-03-19T00:13:21;13.20;99.90
35445;DHT22;21562;49.476;6.086;2023-03-19T00:15:46;13.10;99.90
35445;DHT22;21562;49.476;6.086;2023-03-19T00:18:12;13.00;99.90
35445;DHT22;21562;49.476;6.086;2023-03-19T00:20:39;12.90;99.90
35445;DHT22;21562;49.476;6.086;2023-03-19T00:23:04;12.50;99.90
35445;DHT22;21562;49.476;6.086;2023-03-19T00:25:31;12.30;99.90
35445;DHT22;21562;49.476;6.086;2023-03-19T00:27:56;12.30;99.90
35445;DHT22;21562;49.476;6.086;2023-03-19T00:30:22;12.50;99.90
35445;DHT22;21562;49.476;6.086;2023-03-19T00:32:48;12.50;99.90
35445;DHT22;21562;49.476;6.086;2023-03-19T00:35:14;12.60;99.90
35445;DHT22;21562;49.476;6.086;2023-03-19T00:37:40;12.60;99.90
35445;DHT22;21562;49.476;6.086;2023-03-19T00:40:07;12.60;99.90
35445;DHT22;21562;49.476;6.086;2023-03-19T00:42:33;12.70;99.90
35445;DHT22;21562;49.476;6.086;2023-03-19T00:44:59;12.60;99.90
35445;DHT22;21562;49.476;6.086;2023-03-19T00:47:25;12.60;99.90
35445;DHT22;21562;49.476;6.086;2023-03-19T00:49:52;12.70;99.90
35445;DHT22;21562;49.476;6.086;2023-03-19T00:52:17;12.80;99.90
35445;DHT22;21562;49.476;6.086;2023-03-19T00:54:43;12.70;99.90
35445;DHT22;21562;49.476;6.086;2023-03-19T00:57:09;12.50;99.90
35445;DHT22;21562;49.476;6.086;2023-03-19T00:59:34;12.50;99.90
35445;DHT22;21562;49.476;6.086;2023-03-19T01:02:00;12.40;99.90
35445;DHT22;21562;49.476;6.086;2023-03-19T01:04:26;12.50;99.90
35445;DHT22;21562;49.476;6.086;2023-03-19T01:06:51;12.60;99.90
35445;DHT22;21562;49.476;6.086;2023-03-19T01:09:17;12.70;99.90
35445;DHT22;21562;49.476;6.086;2023-03-19T01:11:43;12.60;99.90
35445;DHT22;21562;49.476;6.086;2023-03-19T01:14:09;12.30;99.90
35445;DHT22;21562;49.476;6.086;2023-03-19T01:16:35;11.90;99.90
35445;DHT22;21562;49.476;6.086;2023-03-19T01:19:01;11.90;99.90
35445;DHT22;21562;49.476;6.086;2023-03-19T01:21:27;12.00;99.90
35445;DHT22;21562;49.476;6.086;2023-03-19T01:23:56;12.10;99.90
35445;DHT22;21562;49.476;6.086;2023-03-19T01:26:22;12.30;99.90
35445;DHT22;21562;49.476;6.086;2023-03-19T01:28:47;12.40;99.90
35445;DHT22;21562;49.476;6.086;2023-03-19T01:31:13;12.50;99.90
35445;DHT22;21562;49.476;6.086;2023-03-19T01:33:39;12.50;99.90
35445;DHT22;21562;49.476;6.086;2023-03-19T01:36:05;12.30;99.90
35445;DHT22;21562;49.476;6.086;2023-03-19T01:38:31;12.20;99.90
35445;DHT22;21562;49.476;6.086;2023-03-19T01:40:57;12.30;99.90
35445;DHT22;21562;49.476;6.086;2023-03-19T01:43:24;12.30;99.90
35445;DHT22;21562;49.476;6.086;2023-03-19T01:45:54;12.40;99.90
35445;DHT22;21562;49.476;6.086;2023-03-19T01:48:57;12.20;99.90
35445;DHT22;21562;49.476;6.086;2023-03-19T01:51:29;12.10;99.90
35445;DHT22;21562;49.476;6.086;2023-03-19T01:54:00;11.90;99.90
35445;DHT22;21562;49.476;6.086;2023-03-19T01:56:30;11.90;99.90
35445;DHT22;21562;49.476;6.086;2023-03-19T02:01:59;12.00;99.90
35445;DHT22;21562;49.476;6.086;2023-03-19T02:04:26;12.10;99.90
35445;DHT22;21562;49.476;6.086;2023-03-19T02:06:54;12.00;99.90
35445;DHT22;21562;49.476;6.086;2023-03-19T02:09:20;12.00;99.90
35445;DHT22;21562;49.476;6.086;2023-03-19T02:11:46;12.10;99.90
35445;DHT22;21562;49.476;6.086;2023-03-19T02:14:12;12.20;99.90
35445;DHT22;21562;49.476;6.086;2023-03-19T02:16:38;12.20;99.90
35445;DHT22;21562;49.476;6.086;2023-03-19T02:19:07;12.00;99.90
35445;DHT22;21562;49.476;6.086;2023-03-19T02:21:34;11.80;99.90
35445;DHT22;21562;49.476;6.086;2023-03-19T02:27:07;11.70;99.90
35445;DHT22;21562;49.476;6.086;2023-03-19T02:29:34;11.90;99.90
35445;DHT22;21562;49.476;6.086;2023-03-19T02:31:59;12.00;99.90
35445;DHT22;21562;49.476;6.086;2023-03-19T02:37:07;11.80;99.90
35445;DHT22;21562;49.476;6.086;2023-03-19T02:39:47;11.90;99.90
35445;DHT22;21562;49.476;6.086;2023-03-19T02:42:14;12.00;99.90
35445;DHT22;21562;49.476;6.086;2023-03-19T02:44:42;11.90;99.90
35445;DHT22;21562;49.476;6.086;2023-03-19T02:47:07;11.90;99.90
35445;DHT22;21562;49.476;6.086;2023-03-19T02:49:33;11.90;99.90
35445;DHT22;21562;49.476;6.086;2023-03-19T02:52:00;11.90;99.90
35445;DHT22;21562;49.476;6.086;2023-03-19T02:54:26;11.90;99.90
35445;DHT22;21562;49.476;6.086;2023-03-19T02:56:52;11.70;99.90
35445;DHT22;21562;49.476;6.086;2023-03-19T02:59:18;11.80;99.90
35445;DHT22;21562;49.476;6.086;2023-03-19T03:01:43;12.00;99.90
35445;DHT22;21562;49.476;6.086;2023-03-19T03:04:09;12.30;99.90
35445;DHT22;21562;49.476;6.086;2023-03-19T03:06:35;12.50;99.90
35445;DHT22;21562;49.476;6.086;2023-03-19T03:09:02;12.70;99.90
35445;DHT22;21562;49.476;6.086;2023-03-19T03:11:28;12.80;99.90
35445;DHT22;21562;49.476;6.086;2023-03-19T03:13:53;13.00;99.90
35445;DHT22;21562;49.476;6.086;2023-03-19T03:16:19;13.10;99.90
35445;DHT22;21562;49.476;6.086;2023-03-19T03:18:46;13.00;99.90
35445;DHT22;21562;49.476;6.086;2023-03-19T03:21:11;12.70;99.90
35445;DHT22;21562;49.476;6.086;2023-03-19T03:23:37;12.40;99.90
35445;DHT22;21562;49.476;6.086;2023-03-19T03:26:02;12.10;99.90
35445;DHT22;21562;49.476;6.086;2023-03-19T03:28:28;11.90;99.90
35445;DHT22;21562;49.476;6.086;2023-03-19T03:30:58;11.80;99.90
35445;DHT22;21562;49.476;6.086;2023-03-19T03:33:24;11.50;99.90
35445;DHT22;21562;49.476;6.086;2023-03-19T03:35:50;11.60;99.90
35445;DHT22;21562;49.476;6.086;2023-03-19T03:38:16;11.50;99.90
35445;DHT22;21562;49.476;6.086;2023-03-19T03:40:42;11.50;99.90
35445;DHT22;21562;49.476;6.086;2023-03-19T03:43:08;11.60;99.90
35445;DHT22;21562;49.476;6.086;2023-03-19T03:45:35;11.90;99.90
35445;DHT22;21562;49.476;6.086;2023-03-19T03:48:01;12.10;99.90
35445;DHT22;21562;49.476;6.086;2023-03-19T03:50:27;12.30;99.90
35445;DHT22;21562;49.476;6.086;2023-03-19T03:52:52;12.40;99.90
35445;DHT22;21562;49.476;6.086;2023-03-19T03:55:18;12.50;99.90
35445;DHT22;21562;49.476;6.086;2023-03-19T03:57:44;12.70;99.90
35445;DHT22;21562;49.476;6.086;2023-03-19T04:00:10;12.80;99.90
35445;DHT22;21562;49.476;6.086;2023-03-19T04:02:36;12.90;99.90
35445;DHT22;21562;49.476;6.086;2023-03-19T04:05:02;13.00;99.90
35445;DHT22;21562;49.476;6.086;2023-03-19T04:07:28;13.00;99.90
35445;DHT22;21562;49.476;6.086;2023-03-19T04:09:56;13.20;99.90
35445;DHT22;21562;49.476;6.086;2023-03-19T04:12:22;13.00;99.90
35445;DHT22;21562;49.476;6.086;2023-03-19T04:14:48;13.00;99.90
35445;DHT22;21562;49.476;6.086;2023-03-19T04:17:14;13.00;99.90
35445;DHT22;21562;49.476;6.086;2023-03-19T04:19:39;13.10;99.90
35445;DHT22;21562;49.476;6.086;2023-03-19T04:22:05;13.10;99.90
35445;DHT22;21562;49.476;6.086;2023-03-19T04:24:32;13.20;99.90
35445;DHT22;21562;49.476;6.086;2023-03-19T04:26:58;13.20;99.90
35445;DHT22;21562;49.476;6.086;2023-03-19T04:29:24;13.20;99.90
35445;DHT22;21562;49.476;6.086;2023-03-19T04:31:50;13.30;99.90
35445;DHT22;21562;49.476;6.086;2023-03-19T04:34:15;13.20;99.90
35445;DHT22;21562;49.476;6.086;2023-03-19T04:36:42;13.00;99.90
35445;DHT22;21562;49.476;6.086;2023-03-19T04:39:08;12.90;99.90
35445;DHT22;21562;49.476;6.086;2023-03-19T04:41:34;12.80;99.90
35445;DHT22;21562;49.476;6.086;2023-03-19T04:44:00;12.50;99.90
35445;DHT22;21562;49.476;6.086;2023-03-19T04:46:26;12.40;99.90
35445;DHT22;21562;49.476;6.086;2023-03-19T04:48:52;12.10;99.90
35445;DHT22;21562;49.476;6.086;2023-03-19T04:51:18;12.20;99.90
35445;DHT22;21562;49.476;6.086;2023-03-19T04:53:46;12.10;99.90
35445;DHT22;21562;49.476;6.086;2023-03-19T04:56:12;12.30;99.90
35445;DHT22;21562;49.476;6.086;2023-03-19T04:58:41;12.60;99.90
35445;DHT22;21562;49.476;6.086;2023-03-19T05:01:06;12.80;99.90
35445;DHT22;21562;49.476;6.086;2023-03-19T05:03:32;12.90;99.90
35445;DHT22;21562;49.476;6.086;2023-03-19T05:05:58;13.00;99.90
35445;DHT22;21562;49.476;6.086;2023-03-19T05:08:23;13.10;99.90
35445;DHT22;21562;49.476;6.086;2023-03-19T05:10:49;13.20;99.90
35445;DHT22;21562;49.476;6.086;2023-03-19T05:13:15;13.40;99.90
35445;DHT22;21562;49.476;6.086;2023-03-19T05:15:42;13.50;99.90
35445;DHT22;21562;49.476;6.086;2023-03-19T05:18:08;13.40;99.90
35445;DHT22;21562;49.476;6.086;2023-03-19T05:20:33;13.40;99.90
35445;DHT22;21562;49.476;6.086;2023-03-19T05:22:59;13.20;99.90
35445;DHT22;21562;49.476;6.086;2023-03-19T05:25:25;12.80;99.90
35445;DHT22;21562;49.476;6.086;2023-03-19T05:27:51;12.50;99.90
35445;DHT22;21562;49.476;6.086;2023-03-19T05:30:17;12.30;99.90
35445;DHT22;21562;49.476;6.086;2023-03-19T05:32:43;12.20;99.90
35445;DHT22;21562;49.476;6.086;2023-03-19T05:35:11;11.80;99.90
35445;DHT22;21562;49.476;6.086;2023-03-19T05:37:37;11.60;99.90
35445;DHT22;21562;49.476;6.086;2023-03-19T05:40:04;11.30;99.90
35445;DHT22;21562;49.476;6.086;2023-03-19T05:42:29;11.50;99.90
35445;DHT22;21562;49.476;6.086;2023-03-19T05:44:55;11.60;99.90
35445;DHT22;21562;49.476;6.086;2023-03-19T05:47:21;11.60;99.90
35445;DHT22;21562;49.476;6.086;2023-03-19T05:49:46;11.60;99.90
35445;DHT22;21562;49.476;6.086;2023-03-19T05:52:12;11.50;99.90
35445;DHT22;21562;49.476;6.086;2023-03-19T05:54:38;11.60;99.90
35445;DHT22;21562;49.476;6.086;2023-03-19T05:57:04;11.60;99.90
35445;DHT22;21562;49.476;6.086;2023-03-19T05:59:30;11.80;99.90
35445;DHT22;21562;49.476;6.086;2023-03-19T06:01:55;11.90;99.90
35445;DHT22;21562;49.476;6.086;2023-03-19T06:04:21;12.20;99.90
35445;DHT22;21562;49.476;6.086;2023-03-19T06:06:47;12.40;99.90
35445;DHT22;21562;49.476;6.086;2023-03-19T06:09:12;12.50;99.90
35445;DHT22;21562;49.476;6.086;2023-03-19T06:11:38;12.60;99.90
35445;DHT22;21562;49.476;6.086;2023-03-19T06:14:05;12.80;99.90
35445;DHT22;21562;49.476;6.086;2023-03-19T06:16:31;13.00;99.90
35445;DHT22;21562;49.476;6.086;2023-03-19T06:18:57;13.00;99.90
35445;DHT22;21562;49.476;6.086;2023-03-19T06:21:23;12.90;99.90
35445;DHT22;21562;49.476;6.086;2023-03-19T06:23:54;13.00;99.90
35445;DHT22;21562;49.476;6.086;2023-03-19T06:26:21;12.80;99.90
35445;DHT22;21562;49.476;6.086;2023-03-19T06:28:46;12.90;99.90
35445;DHT22;21562;49.476;6.086;2023-03-19T06:31:12;12.80;99.90
35445;DHT22;21562;49.476;6.086;2023-03-19T06:33:38;12.90;99.90
35445;DHT22;21562;49.476;6.086;2023-03-19T06:36:04;13.00;99.90
35445;DHT22;21562;49.476;6.086;2023-03-19T06:38:29;13.10;99.90
35445;DHT22;21562;49.476;6.086;2023-03-19T06:40:55;13.10;99.90
35445;DHT22;21562;49.476;6.086;2023-03-19T06:43:21;13.20;99.90
35445;DHT22;21562;49.476;6.086;2023-03-19T06:45:47;13.10;99.90
35445;DHT22;21562;49.476;6.086;2023-03-19T06:48:13;13.20;99.90
35445;DHT22;21562;49.476;6.086;2023-03-19T06:50:39;14.20;99.90
35445;DHT22;21562;49.476;6.086;2023-03-19T06:53:04;14.40;99.90
35445;DHT22;21562;49.476;6.086;2023-03-19T06:55:30;14.20;99.90
35445;DHT22;21562;49.476;6.086;2023-03-19T06:57:56;14.00;99.90
35445;DHT22;21562;49.476;6.086;2023-03-19T07:00:21;13.90;99.90
35445;DHT22;21562;49.476;6.086;2023-03-19T07:02:48;13.70;99.90
35445;DHT22;21562;49.476;6.086;2023-03-19T07:05:13;13.70;99.90
35445;DHT22;21562;49.476;6.086;2023-03-19T07:07:40;13.60;99.90
35445;DHT22;21562;49.476;6.086;2023-03-19T07:10:06;13.50;99.90
35445;DHT22;21562;49.476;6.086;2023-03-19T07:12:33;13.40;99.90
35445;DHT22;21562;49.476;6.086;2023-03-19T07:14:58;13.30;99.90
35445;DHT22;21562;49.476;6.086;2023-03-19T07:17:24;13.10;99.90
35445;DHT22;21562;49.476;6.086;2023-03-19T07:19:50;12.80;99.90
35445;DHT22;21562;49.476;6.086;2023-03-19T07:22:16;12.50;99.90
35445;DHT22;21562;49.476;6.086;2023-03-19T07:24:42;12.00;99.90
35445;DHT22;21562;49.476;6.086;2023-03-19T07:27:08;11.80;99.90
35445;DHT22;21562;49.476;6.086;2023-03-19T07:29:34;11.60;99.90
35445;DHT22;21562;49.476;6.086;2023-03-19T07:31:59;11.80;99.90
35445;DHT22;21562;49.476;6.086;2023-03-19T07:34:25;11.90;99.90
35445;DHT22;21562;49.476;6.086;2023-03-19T07:36:51;11.90;99.90
35445;DHT22;21562;49.476;6.086;2023-03-19T07:39:18;12.10;99.90
35445;DHT22;21562;49.476;6.086;2023-03-19T07:41:43;12.40;99.90
35445;DHT22;21562;49.476;6.086;2023-03-19T07:44:12;12.50;99.90
35445;DHT22;21562;49.476;6.086;2023-03-19T07:46:37;12.70;99.90
35445;DHT22;21562;49.476;6.086;2023-03-19T07:49:03;12.90;99.90
35445;DHT22;21562;49.476;6.086;2023-03-19T07:51:28;12.80;99.90
35445;DHT22;21562;49.476;6.086;2023-03-19T07:53:54;12.70;99.90
35445;DHT22;21562;49.476;6.086;2023-03-19T07:56:20;12.80;99.90
35445;DHT22;21562;49.476;6.086;2023-03-19T07:58:45;12.60;99.90
35445;DHT22;21562;49.476;6.086;2023-03-19T08:01:11;12.20;99.90
35445;DHT22;21562;49.476;6.086;2023-03-19T08:03:37;12.10;99.90
35445;DHT22;21562;49.476;6.086;2023-03-19T08:06:03;12.30;99.90
35445;DHT22;21562;49.476;6.086;2023-03-19T08:08:29;12.60;99.90
35445;DHT22;21562;49.476;6.086;2023-03-19T08:10:55;12.50;99.90
35445;DHT22;21562;49.476;6.086;2023-03-19T08:13:21;12.40;99.90
35445;DHT22;21562;49.476;6.086;2023-03-19T08:15:48;12.50;99.90
35445;DHT22;21562;49.476;6.086;2023-03-19T08:18:15;12.50;99.90
35445;DHT22;21562;49.476;6.086;2023-03-19T08:20:41;12.60;99.90
35445;DHT22;21562;49.476;6.086;2023-03-19T08:23:06;12.60;99.90
35445;DHT22;21562;49.476;6.086;2023-03-19T08:25:32;12.90;99.90
35445;DHT22;21562;49.476;6.086;2023-03-19T08:27:59;14.40;99.90
35445;DHT22;21562;49.476;6.086;2023-03-19T08:30:25;15.20;99.90
35445;DHT22;21562;49.476;6.086;2023-03-19T08:32:50;15.40;99.90
35445;DHT22;21562;49.476;6.086;2023-03-19T08:35:16;14.50;99.90
35445;DHT22;21562;49.476;6.086;2023-03-19T08:37:42;14.80;99.90
35445;DHT22;21562;49.476;6.086;2023-03-19T08:40:08;14.70;99.90
35445;DHT22;21562;49.476;6.086;2023-03-19T08:42:34;13.50;99.90
35445;DHT22;21562;49.476;6.086;2023-03-19T08:45:00;13.50;99.90
35445;DHT22;21562;49.476;6.086;2023-03-19T08:47:26;13.50;99.90
35445;DHT22;21562;49.476;6.086;2023-03-19T08:49:52;13.80;99.90
35445;DHT22;21562;49.476;6.086;2023-03-19T08:52:18;13.30;99.90
35445;DHT22;21562;49.476;6.086;2023-03-19T08:54:44;13.40;99.90
35445;DHT22;21562;49.476;6.086;2023-03-19T08:57:10;13.50;99.90
35445;DHT22;21562;49.476;6.086;2023-03-19T08:59:35;13.50;99.90
35445;DHT22;21562;49.476;6.086;2023-03-19T09:02:01;13.00;99.90
35445;DHT22;21562;49.476;6.086;2023-03-19T09:04:27;12.70;99.90
35445;DHT22;21562;49.476;6.086;2023-03-19T09:06:52;12.50;99.90
35445;DHT22;21562;49.476;6.086;2023-03-19T09:09:19;12.40;99.90
35445;DHT22;21562;49.476;6.086;2023-03-19T09:11:46;12.60;99.90
35445;DHT22;21562;49.476;6.086;2023-03-19T09:14:12;12.80;99.90
35445;DHT22;21562;49.476;6.086;2023-03-19T09:16:39;12.70;99.90
35445;DHT22;21562;49.476;6.086;2023-03-19T09:19:04;12.50;99.90
35445;DHT22;21562;49.476;6.086;2023-03-19T09:21:31;12.60;99.90
35445;DHT22;21562;49.476;6.086;2023-03-19T09:23:56;12.70;99.90
35445;DHT22;21562;49.476;6.086;2023-03-19T09:26:22;12.60;99.90
35445;DHT22;21562;49.476;6.086;2023-03-19T09:28:47;12.50;99.90
35445;DHT22;21562;49.476;6.086;2023-03-19T09:31:13;12.80;99.90
35445;DHT22;21562;49.476;6.086;2023-03-19T09:33:39;12.70;99.90
35445;DHT22;21562;49.476;6.086;2023-03-19T09:36:05;12.60;99.90
35445;DHT22;21562;49.476;6.086;2023-03-19T09:38:30;12.60;99.90
35445;DHT22;21562;49.476;6.086;2023-03-19T09:41:09;12.80;99.90
35445;DHT22;21562;49.476;6.086;2023-03-19T09:43:59;12.90;99.90
35445;DHT22;21562;49.476;6.086;2023-03-19T09:46:40;12.60;99.90
35445;DHT22;21562;49.476;6.086;2023-03-19T09:49:29;12.70;99.90
35445;DHT22;21562;49.476;6.086;2023-03-19T09:54:46;12.40;99.90
35445;DHT22;21562;49.476;6.086;2023-03-19T09:57:13;12.30;99.90
35445;DHT22;21562;49.476;6.086;2023-03-19T09:59:40;12.50;99.90
35445;DHT22;21562;49.476;6.086;2023-03-19T10:05:18;12.20;99.90
35445;DHT22;21562;49.476;6.086;2023-03-19T10:15:50;12.70;99.90
35445;DHT22;21562;49.476;6.086;2023-03-19T10:18:21;12.20;99.90
35445;DHT22;21562;49.476;6.086;2023-03-19T10:21:03;12.00;99.90
35445;DHT22;21562;49.476;6.086;2023-03-19T10:23:46;12.10;99.90
35445;DHT22;21562;49.476;6.086;2023-03-19T10:26:19;12.10;99.90
35445;DHT22;21562;49.476;6.086;2023-03-19T10:32:17;12.40;99.90
35445;DHT22;21562;49.476;6.086;2023-03-19T10:34:42;12.40;99.90
35445;DHT22;21562;49.476;6.086;2023-03-19T10:37:26;12.60;99.90
35445;DHT22;21562;49.476;6.086;2023-03-19T10:39:58;12.60;99.90
35445;DHT22;21562;49.476;6.086;2023-03-19T10:47:40;12.70;99.90
35445;DHT22;21562;49.476;6.086;2023-03-19T10:50:15;12.60;99.90
35445;DHT22;21562;49.476;6.086;2023-03-19T10:52:42;12.20;99.90
35445;DHT22;21562;49.476;6.086;2023-03-19T10:55:25;12.30;99.90
35445;DHT22;21562;49.476;6.086;2023-03-19T10:58:19;12.40;99.90
35445;DHT22;21562;49.476;6.086;2023-03-19T11:00:46;12.30;99.90
35445;DHT22;21562;49.476;6.086;2023-03-19T11:14:11;12.90;99.90
35445;DHT22;21562;49.476;6.086;2023-03-19T11:19:24;12.40;99.90
35445;DHT22;21562;49.476;6.086;2023-03-19T11:24:56;12.30;99.90
35445;DHT22;21562;49.476;6.086;2023-03-19T11:27:31;12.50;99.90
35445;DHT22;21562;49.476;6.086;2023-03-19T11:30:00;12.50;99.90
35445;DHT22;21562;49.476;6.086;2023-03-19T11:35:33;12.20;99.90
35445;DHT22;21562;49.476;6.086;2023-03-19T11:38:02;12.20;99.90
35445;DHT22;21562;49.476;6.086;2023-03-19T11:56:47;12.60;99.90
35445;DHT22;21562;49.476;6.086;2023-03-19T11:59:28;12.90;99.90
35445;DHT22;21562;49.476;6.086;2023-03-19T12:05:11;13.30;99.90
35445;DHT22;21562;49.476;6.086;2023-03-19T12:10:55;12.90;99.90
35445;DHT22;21562;49.476;6.086;2023-03-19T12:19:22;12.50;99.90
35445;DHT22;21562;49.476;6.086;2023-03-19T12:22:16;13.00;99.90
35445;DHT22;21562;49.476;6.086;2023-03-19T12:35:20;13.30;99.90
35445;DHT22;21562;49.476;6.086;2023-03-19T12:41:01;13.20;99.90
35445;DHT22;21562;49.476;6.086;2023-03-19T12:43:35;13.40;99.90
35445;DHT22;21562;49.476;6.086;2023-03-19T12:46:47;13.50;99.90
35445;DHT22;21562;49.476;6.086;2023-03-19T12:51:20;13.40;99.90
35445;DHT22;21562;49.476;6.086;2023-03-19T12:56:40;13.70;99.90
35445;DHT22;21562;49.476;6.086;2023-03-19T13:05:31;14.30;99.90
35445;DHT22;21562;49.476;6.086;2023-03-19T13:08:11;14.50;99.90
35445;DHT22;21562;49.476;6.086;2023-03-19T13:10:41;15.20;99.90
35445;DHT22;21562;49.476;6.086;2023-03-19T13:16:06;16.00;99.90
35445;DHT22;21562;49.476;6.086;2023-03-19T13:18:40;15.60;99.90
35445;DHT22;21562;49.476;6.086;2023-03-19T13:21:35;15.50;99.90
35445;DHT22;21562;49.476;6.086;2023-03-19T13:24:22;14.90;99.90
35445;DHT22;21562;49.476;6.086;2023-03-19T13:26:51;14.60;99.90
35445;DHT22;21562;49.476;6.086;2023-03-19T13:31:45;14.80;99.90
35445;DHT22;21562;49.476;6.086;2023-03-19T13:36:44;14.60;99.90
35445;DHT22;21562;49.476;6.086;2023-03-19T13:39:17;14.70;99.90
35445;DHT22;21562;49.476;6.086;2023-03-19T13:42:21;14.60;99.90
35445;DHT22;21562;49.476;6.086;2023-03-19T13:44:51;14.40;99.90
35445;DHT22;21562;49.476;6.086;2023-03-19T13:55:28;14.10;99.90
35445;DHT22;21562;49.476;6.086;2023-03-19T14:03:21;14.50;99.90
35445;DHT22;21562;49.476;6.086;2023-03-19T14:05:49;14.20;99.90
35445;DHT22;21562;49.476;6.086;2023-03-19T14:08:22;13.70;99.90
35445;DHT22;21562;49.476;6.086;2023-03-19T14:10:56;13.00;99.90
35445;DHT22;21562;49.476;6.086;2023-03-19T14:15:49;12.00;99.90
35445;DHT22;21562;49.476;6.086;2023-03-19T14:18:18;12.00;99.90
35445;DHT22;21562;49.476;6.086;2023-03-19T14:20:49;11.80;99.90
35445;DHT22;21562;49.476;6.086;2023-03-19T14:23:24;11.80;99.90
35445;DHT22;21562;49.476;6.086;2023-03-19T14:28:46;12.50;99.90
35445;DHT22;21562;49.476;6.086;2023-03-19T14:31:42;12.50;99.90
35445;DHT22;21562;49.476;6.086;2023-03-19T14:36:39;13.20;99.90
35445;DHT22;21562;49.476;6.086;2023-03-19T14:39:22;13.30;99.90
35445;DHT22;21562;49.476;6.086;2023-03-19T14:41:53;13.50;99.90
35445;DHT22;21562;49.476;6.086;2023-03-19T14:50:02;14.50;99.90
35445;DHT22;21562;49.476;6.086;2023-03-19T14:53:12;14.40;99.90
35445;DHT22;21562;49.476;6.086;2023-03-19T14:55:40;13.90;99.90
35445;DHT22;21562;49.476;6.086;2023-03-19T14:58:10;13.40;99.90
35445;DHT22;21562;49.476;6.086;2023-03-19T15:00:51;13.30;99.90
35445;DHT22;21562;49.476;6.086;2023-03-19T15:03:36;13.10;99.90
35445;DHT22;21562;49.476;6.086;2023-03-19T15:06:05;12.60;99.90
35445;DHT22;21562;49.476;6.086;2023-03-19T15:08:34;12.50;99.90
35445;DHT22;21562;49.476;6.086;2023-03-19T15:14:07;12.50;99.90
35445;DHT22;21562;49.476;6.086;2023-03-19T15:16:39;12.40;99.90
35445;DHT22;21562;49.476;6.086;2023-03-19T15:19:09;12.60;99.90
35445;DHT22;21562;49.476;6.086;2023-03-19T15:21:36;12.80;99.90
35445;DHT22;21562;49.476;6.086;2023-03-19T15:24:02;12.70;99.90
35445;DHT22;21562;49.476;6.086;2023-03-19T15:26:31;12.70;99.90
35445;DHT22;21562;49.476;6.086;2023-03-19T15:28:57;12.70;99.90
35445;DHT22;21562;49.476;6.086;2023-03-19T15:31:23;12.90;99.90
35445;DHT22;21562;49.476;6.086;2023-03-19T15:34:17;12.80;99.90
35445;DHT22;21562;49.476;6.086;2023-03-19T15:36:43;13.00;99.90
35445;DHT22;21562;49.476;6.086;2023-03-19T15:39:10;13.20;99.90
35445;DHT22;21562;49.476;6.086;2023-03-19T15:41:43;13.20;99.90
35445;DHT22;21562;49.476;6.086;2023-03-19T15:44:22;13.30;99.90
35445;DHT22;21562;49.476;6.086;2023-03-19T15:46:49;13.60;99.90
35445;DHT22;21562;49.476;6.086;2023-03-19T15:49:25;13.80;99.90
35445;DHT22;21562;49.476;6.086;2023-03-19T15:51:57;14.10;99.90
35445;DHT22;21562;49.476;6.086;2023-03-19T15:54:24;14.30;99.90
35445;DHT22;21562;49.476;6.086;2023-03-19T15:56:51;14.70;99.90
35445;DHT22;21562;49.476;6.086;2023-03-19T15:59:19;15.20;99.90
35445;DHT22;21562;49.476;6.086;2023-03-19T16:01:46;15.30;99.90
35445;DHT22;21562;49.476;6.086;2023-03-19T16:04:22;15.40;99.90
35445;DHT22;21562;49.476;6.086;2023-03-19T16:06:49;15.60;99.90
35445;DHT22;21562;49.476;6.086;2023-03-19T16:11:59;15.40;99.90
35445;DHT22;21562;49.476;6.086;2023-03-19T16:14:26;15.50;99.90
35445;DHT22;21562;49.476;6.086;2023-03-19T16:17:12;15.40;99.90
35445;DHT22;21562;49.476;6.086;2023-03-19T16:19:54;15.50;99.90
35445;DHT22;21562;49.476;6.086;2023-03-19T16:22:28;15.40;99.90
35445;DHT22;21562;49.476;6.086;2023-03-19T16:24:54;15.70;99.90
35445;DHT22;21562;49.476;6.086;2023-03-19T16:27:37;15.30;99.90
35445;DHT22;21562;49.476;6.086;2023-03-19T16:30:24;14.60;99.90
35445;DHT22;21562;49.476;6.086;2023-03-19T16:33:01;14.20;99.90
35445;DHT22;21562;49.476;6.086;2023-03-19T16:35:28;13.80;99.90
35445;DHT22;21562;49.476;6.086;2023-03-19T16:38:21;13.50;99.90
35445;DHT22;21562;49.476;6.086;2023-03-19T16:40:49;13.40;99.90
35445;DHT22;21562;49.476;6.086;2023-03-19T16:43:22;13.30;99.90
35445;DHT22;21562;49.476;6.086;2023-03-19T16:45:50;13.30;99.90
35445;DHT22;21562;49.476;6.086;2023-03-19T16:48:16;13.20;99.90
35445;DHT22;21562;49.476;6.086;2023-03-19T16:50:42;13.20;99.90
35445;DHT22;21562;49.476;6.086;2023-03-19T16:53:20;13.00;99.90
35445;DHT22;21562;49.476;6.086;2023-03-19T16:55:47;13.20;99.90
35445;DHT22;21562;49.476;6.086;2023-03-19T17:01:18;13.20;99.90
35445;DHT22;21562;49.476;6.086;2023-03-19T17:03:45;13.10;99.90
35445;DHT22;21562;49.476;6.086;2023-03-19T17:06:12;13.00;99.90
35445;DHT22;21562;49.476;6.086;2023-03-19T17:08:39;13.00;99.90
35445;DHT22;21562;49.476;6.086;2023-03-19T17:11:05;13.10;99.90
35445;DHT22;21562;49.476;6.086;2023-03-19T17:13:32;13.20;99.90
35445;DHT22;21562;49.476;6.086;2023-03-19T17:16:05;13.50;99.90
35445;DHT22;21562;49.476;6.086;2023-03-19T17:18:34;13.90;99.90
35445;DHT22;21562;49.476;6.086;2023-03-19T17:23:26;13.80;99.90
35445;DHT22;21562;49.476;6.086;2023-03-19T17:25:52;14.00;99.90
35445;DHT22;21562;49.476;6.086;2023-03-19T17:28:19;14.30;99.90
35445;DHT22;21562;49.476;6.086;2023-03-19T17:30:46;14.50;99.90
35445;DHT22;21562;49.476;6.086;2023-03-19T17:33:30;14.60;99.90
35445;DHT22;21562;49.476;6.086;2023-03-19T17:35:57;14.70;99.90
35445;DHT22;21562;49.476;6.086;2023-03-19T17:38:31;14.90;99.90
35445;DHT22;21562;49.476;6.086;2023-03-19T17:40:57;15.00;99.90
35445;DHT22;21562;49.476;6.086;2023-03-19T17:43:23;15.10;99.90
35445;DHT22;21562;49.476;6.086;2023-03-19T17:45:48;14.90;99.90
35445;DHT22;21562;49.476;6.086;2023-03-19T17:48:20;14.70;99.90
35445;DHT22;21562;49.476;6.086;2023-03-19T17:50:47;14.80;99.90
35445;DHT22;21562;49.476;6.086;2023-03-19T17:53:12;14.10;99.90
35445;DHT22;21562;49.476;6.086;2023-03-19T17:55:39;13.60;99.90
35445;DHT22;21562;49.476;6.086;2023-03-19T17:58:08;13.20;99.90
35445;DHT22;21562;49.476;6.086;2023-03-19T18:00:34;12.30;99.90
35445;DHT22;21562;49.476;6.086;2023-03-19T18:03:00;12.40;99.90
35445;DHT22;21562;49.476;6.086;2023-03-19T18:05:26;12.40;99.90
35445;DHT22;21562;49.476;6.086;2023-03-19T18:07:55;12.60;99.90
35445;DHT22;21562;49.476;6.086;2023-03-19T18:10:24;12.70;99.90